sensor_id;sensor_type;location;lat;lon;timestamp;P1;durP1;ratioP1;P2;durP2;ratioP2
29384;SDS011;16367;48.736;9.218;2022-10-17T00:00:54;6.22;;;1.83;;
29384;SDS011;16367;48.736;9.218;2022-10-17T00:02:57;6.72;;;2.33;;
29384;SDS011;16367;48.736;9.218;2022-10-17T00:05:01;7.13;;;2.30;;
29384;SDS011;16367;48.736;9.218;2022-10-17T00:07:04;6.30;;;2.20;;
29384;SDS011;16367;48.736;9.218;2022-10-17T00:09:07;6.32;;;2.08;;
29384;SDS011;16367;48.736;9.218;2022-10-17T00:11:12;6.43;;;2.20;;
29384;SDS011;16367;48.736;9.218;2022-10-17T00:13:15;4.55;;;2.05;;
29384;SDS011;16367;48.736;9.218;2022-10-17T00:15:18;3.83;;;1.63;;
29384;SDS011;16367;48.736;9.218;2022-10-17T00:17:22;5.30;;;2.20;;
29384;SDS011;16367;48.736;9.218;2022-10-17T00:19:25;5.65;;;2.05;;
29384;SDS011;16367;48.736;9.218;2022-10-17T00:21:29;5.32;;;2.13;;
29384;SDS011;16367;48.736;9.218;2022-10-17T00:23:32;4.55;;;2.03;;
29384;SDS011;16367;48.736;9.218;2022-10-17T00:25:35;5.15;;;2.33;;
29384;SDS011;16367;48.736;9.218;2022-10-17T00:27:38;7.43;;;3.60;;
29384;SDS011;16367;48.736;9.218;2022-10-17T00:29:43;5.97;;;2.00;;
29384;SDS011;16367;48.736;9.218;2022-10-17T00:31:51;5.93;;;1.98;;
29384;SDS011;16367;48.736;9.218;2022-10-17T00:33:55;6.07;;;2.35;;
29384;SDS011;16367;48.736;9.218;2022-10-17T00:36:02;5.65;;;1.92;;
29384;SDS011;16367;48.736;9.218;2022-10-17T00:38:08;4.93;;;2.00;;
29384;SDS011;16367;48.736;9.218;2022-10-17T00:40:11;5.82;;;2.03;;
29384;SDS011;16367;48.736;9.218;2022-10-17T00:42:14;6.72;;;1.88;;
29384;SDS011;16367;48.736;9.218;2022-10-17T00:46:57;6.25;;;2.47;;
29384;SDS011;16367;48.736;9.218;2022-10-17T00:49:03;6.55;;;2.40;;
29384;SDS011;16367;48.736;9.218;2022-10-17T00:51:08;6.15;;;3.33;;
29384;SDS011;16367;48.736;9.218;2022-10-17T00:53:12;5.32;;;2.25;;
29384;SDS011;16367;48.736;9.218;2022-10-17T00:55:17;7.03;;;3.03;;
29384;SDS011;16367;48.736;9.218;2022-10-17T00:59:26;5.45;;;2.20;;
29384;SDS011;16367;48.736;9.218;2022-10-17T01:01:30;5.97;;;2.47;;
29384;SDS011;16367;48.736;9.218;2022-10-17T01:03:32;8.38;;;2.88;;
29384;SDS011;16367;48.736;9.218;2022-10-17T01:05:35;6.60;;;2.58;;
29384;SDS011;16367;48.736;9.218;2022-10-17T01:07:38;5.97;;;2.25;;
29384;SDS011;16367;48.736;9.218;2022-10-17T01:09:44;5.65;;;2.50;;
29384;SDS011;16367;48.736;9.218;2022-10-17T01:11:49;6.05;;;2.65;;
29384;SDS011;16367;48.736;9.218;2022-10-17T01:13:58;8.32;;;2.83;;
29384;SDS011;16367;48.736;9.218;2022-10-17T01:16:08;7.55;;;2.40;;
29384;SDS011;16367;48.736;9.218;2022-10-17T01:18:18;5.70;;;2.75;;
29384;SDS011;16367;48.736;9.218;2022-10-17T01:23:23;6.18;;;2.60;;
29384;SDS011;16367;48.736;9.218;2022-10-17T01:25:40;6.40;;;2.42;;
29384;SDS011;16367;48.736;9.218;2022-10-17T01:27:59;8.20;;;2.80;;
29384;SDS011;16367;48.736;9.218;2022-10-17T01:30:24;5.38;;;2.13;;
29384;SDS011;16367;48.736;9.218;2022-10-17T01:32:39;7.88;;;2.92;;
29384;SDS011;16367;48.736;9.218;2022-10-17T01:34:50;6.43;;;2.75;;
29384;SDS011;16367;48.736;9.218;2022-10-17T01:36:58;6.45;;;2.60;;
29384;SDS011;16367;48.736;9.218;2022-10-17T01:39:09;6.80;;;2.40;;
29384;SDS011;16367;48.736;9.218;2022-10-17T01:41:19;7.10;;;2.72;;
29384;SDS011;16367;48.736;9.218;2022-10-17T01:43:30;4.55;;;2.20;;
29384;SDS011;16367;48.736;9.218;2022-10-17T01:45:39;6.28;;;2.50;;
29384;SDS011;16367;48.736;9.218;2022-10-17T01:47:47;6.90;;;2.33;;
29384;SDS011;16367;48.736;9.218;2022-10-17T01:49:55;6.32;;;2.58;;
29384;SDS011;16367;48.736;9.218;2022-10-17T01:52:01;7.20;;;2.25;;
29384;SDS011;16367;48.736;9.218;2022-10-17T01:54:09;6.97;;;2.35;;
29384;SDS011;16367;48.736;9.218;2022-10-17T01:56:16;6.28;;;2.20;;
29384;SDS011;16367;48.736;9.218;2022-10-17T01:58:22;7.47;;;1.95;;
29384;SDS011;16367;48.736;9.218;2022-10-17T02:00:30;5.07;;;2.00;;
29384;SDS011;16367;48.736;9.218;2022-10-17T02:02:34;5.47;;;2.00;;
29384;SDS011;16367;48.736;9.218;2022-10-17T02:04:39;5.25;;;2.45;;
29384;SDS011;16367;48.736;9.218;2022-10-17T02:06:42;5.85;;;2.22;;
29384;SDS011;16367;48.736;9.218;2022-10-17T02:08:46;5.38;;;2.35;;
29384;SDS011;16367;48.736;9.218;2022-10-17T02:10:50;5.32;;;2.20;;
29384;SDS011;16367;48.736;9.218;2022-10-17T02:12:59;7.65;;;2.50;;
29384;SDS011;16367;48.736;9.218;2022-10-17T02:15:18;6.53;;;2.70;;
29384;SDS011;16367;48.736;9.218;2022-10-17T02:17:49;4.78;;;2.30;;
29384;SDS011;16367;48.736;9.218;2022-10-17T02:20:12;4.70;;;2.35;;
29384;SDS011;16367;48.736;9.218;2022-10-17T02:22:24;5.72;;;2.00;;
29384;SDS011;16367;48.736;9.218;2022-10-17T02:24:35;4.32;;;1.60;;
29384;SDS011;16367;48.736;9.218;2022-10-17T02:26:47;5.05;;;1.92;;
29384;SDS011;16367;48.736;9.218;2022-10-17T02:28:59;5.43;;;2.20;;
29384;SDS011;16367;48.736;9.218;2022-10-17T02:31:09;5.10;;;2.47;;
29384;SDS011;16367;48.736;9.218;2022-10-17T02:33:18;7.85;;;2.05;;
29384;SDS011;16367;48.736;9.218;2022-10-17T02:35:26;5.03;;;2.10;;
29384;SDS011;16367;48.736;9.218;2022-10-17T02:37:32;5.07;;;2.35;;
29384;SDS011;16367;48.736;9.218;2022-10-17T02:39:35;5.25;;;2.50;;
29384;SDS011;16367;48.736;9.218;2022-10-17T02:41:39;5.97;;;2.40;;
29384;SDS011;16367;48.736;9.218;2022-10-17T02:43:44;5.35;;;2.83;;
29384;SDS011;16367;48.736;9.218;2022-10-17T02:45:48;6.35;;;2.88;;
29384;SDS011;16367;48.736;9.218;2022-10-17T02:47:54;5.30;;;2.60;;
29384;SDS011;16367;48.736;9.218;2022-10-17T02:50:00;5.93;;;2.47;;
29384;SDS011;16367;48.736;9.218;2022-10-17T02:52:06;6.57;;;2.38;;
29384;SDS011;16367;48.736;9.218;2022-10-17T02:54:15;7.95;;;2.60;;
29384;SDS011;16367;48.736;9.218;2022-10-17T02:56:21;8.52;;;3.08;;
29384;SDS011;16367;48.736;9.218;2022-10-17T02:58:28;6.50;;;2.08;;
29384;SDS011;16367;48.736;9.218;2022-10-17T03:00:32;5.18;;;2.10;;
29384;SDS011;16367;48.736;9.218;2022-10-17T03:02:39;5.72;;;2.65;;
29384;SDS011;16367;48.736;9.218;2022-10-17T03:04:44;6.25;;;3.00;;
29384;SDS011;16367;48.736;9.218;2022-10-17T03:06:48;4.60;;;2.30;;
29384;SDS011;16367;48.736;9.218;2022-10-17T03:08:52;6.55;;;2.47;;
29384;SDS011;16367;48.736;9.218;2022-10-17T03:10:54;5.28;;;2.20;;
29384;SDS011;16367;48.736;9.218;2022-10-17T03:12:57;5.90;;;2.60;;
29384;SDS011;16367;48.736;9.218;2022-10-17T03:14:59;5.60;;;2.33;;
29384;SDS011;16367;48.736;9.218;2022-10-17T03:17:02;5.82;;;2.40;;
29384;SDS011;16367;48.736;9.218;2022-10-17T03:19:05;7.22;;;2.83;;
29384;SDS011;16367;48.736;9.218;2022-10-17T03:21:07;6.95;;;2.67;;
29384;SDS011;16367;48.736;9.218;2022-10-17T03:23:10;8.50;;;2.53;;
29384;SDS011;16367;48.736;9.218;2022-10-17T03:25:14;7.38;;;2.50;;
29384;SDS011;16367;48.736;9.218;2022-10-17T03:27:17;6.70;;;2.78;;
29384;SDS011;16367;48.736;9.218;2022-10-17T03:29:20;7.57;;;2.70;;
29384;SDS011;16367;48.736;9.218;2022-10-17T03:31:23;6.50;;;2.70;;
29384;SDS011;16367;48.736;9.218;2022-10-17T03:33:26;6.90;;;2.60;;
29384;SDS011;16367;48.736;9.218;2022-10-17T03:35:29;7.22;;;2.80;;
29384;SDS011;16367;48.736;9.218;2022-10-17T03:37:32;5.18;;;2.67;;
29384;SDS011;16367;48.736;9.218;2022-10-17T03:39:34;6.22;;;2.40;;
29384;SDS011;16367;48.736;9.218;2022-10-17T03:41:38;5.85;;;2.60;;
29384;SDS011;16367;48.736;9.218;2022-10-17T03:43:41;8.45;;;2.30;;
29384;SDS011;16367;48.736;9.218;2022-10-17T03:45:44;5.00;;;2.03;;
29384;SDS011;16367;48.736;9.218;2022-10-17T03:47:46;6.45;;;2.30;;
29384;SDS011;16367;48.736;9.218;2022-10-17T03:49:49;6.95;;;2.67;;
29384;SDS011;16367;48.736;9.218;2022-10-17T03:51:53;5.97;;;2.53;;
29384;SDS011;16367;48.736;9.218;2022-10-17T03:53:56;4.90;;;2.35;;
29384;SDS011;16367;48.736;9.218;2022-10-17T03:56:07;4.85;;;2.03;;
29384;SDS011;16367;48.736;9.218;2022-10-17T03:58:12;6.70;;;2.50;;
29384;SDS011;16367;48.736;9.218;2022-10-17T04:00:15;4.28;;;2.03;;
29384;SDS011;16367;48.736;9.218;2022-10-17T04:02:17;7.07;;;2.75;;
29384;SDS011;16367;48.736;9.218;2022-10-17T04:04:20;7.70;;;2.50;;
29384;SDS011;16367;48.736;9.218;2022-10-17T04:06:23;5.68;;;2.30;;
29384;SDS011;16367;48.736;9.218;2022-10-17T04:08:25;5.47;;;2.30;;
29384;SDS011;16367;48.736;9.218;2022-10-17T04:10:29;5.90;;;2.40;;
29384;SDS011;16367;48.736;9.218;2022-10-17T04:12:31;5.97;;;2.70;;
29384;SDS011;16367;48.736;9.218;2022-10-17T04:14:35;10.32;;;3.17;;
29384;SDS011;16367;48.736;9.218;2022-10-17T04:16:38;8.35;;;2.80;;
29384;SDS011;16367;48.736;9.218;2022-10-17T04:18:41;8.00;;;2.72;;
29384;SDS011;16367;48.736;9.218;2022-10-17T04:20:44;4.93;;;2.55;;
29384;SDS011;16367;48.736;9.218;2022-10-17T04:22:47;6.95;;;2.53;;
29384;SDS011;16367;48.736;9.218;2022-10-17T04:24:49;5.82;;;2.70;;
29384;SDS011;16367;48.736;9.218;2022-10-17T04:26:52;7.15;;;2.75;;
29384;SDS011;16367;48.736;9.218;2022-10-17T04:28:55;6.07;;;2.80;;
29384;SDS011;16367;48.736;9.218;2022-10-17T04:30:59;6.60;;;2.67;;
29384;SDS011;16367;48.736;9.218;2022-10-17T04:33:03;7.60;;;3.03;;
29384;SDS011;16367;48.736;9.218;2022-10-17T04:35:06;9.60;;;2.92;;
29384;SDS011;16367;48.736;9.218;2022-10-17T04:37:09;7.55;;;3.05;;
29384;SDS011;16367;48.736;9.218;2022-10-17T04:39:12;5.63;;;2.83;;
29384;SDS011;16367;48.736;9.218;2022-10-17T04:41:16;6.22;;;3.00;;
29384;SDS011;16367;48.736;9.218;2022-10-17T04:43:19;6.68;;;2.92;;
29384;SDS011;16367;48.736;9.218;2022-10-17T04:45:22;8.73;;;3.20;;
29384;SDS011;16367;48.736;9.218;2022-10-17T04:47:26;9.02;;;3.13;;
29384;SDS011;16367;48.736;9.218;2022-10-17T04:49:29;6.15;;;2.92;;
29384;SDS011;16367;48.736;9.218;2022-10-17T04:51:31;7.68;;;3.22;;
29384;SDS011;16367;48.736;9.218;2022-10-17T04:53:35;7.68;;;3.28;;
29384;SDS011;16367;48.736;9.218;2022-10-17T04:55:39;7.88;;;3.25;;
29384;SDS011;16367;48.736;9.218;2022-10-17T04:57:41;6.15;;;3.00;;
29384;SDS011;16367;48.736;9.218;2022-10-17T04:59:44;7.82;;;3.30;;
29384;SDS011;16367;48.736;9.218;2022-10-17T05:01:47;8.15;;;3.55;;
29384;SDS011;16367;48.736;9.218;2022-10-17T05:03:51;7.47;;;3.40;;
29384;SDS011;16367;48.736;9.218;2022-10-17T05:05:54;6.97;;;3.30;;
29384;SDS011;16367;48.736;9.218;2022-10-17T05:07:57;8.48;;;3.30;;
29384;SDS011;16367;48.736;9.218;2022-10-17T05:09:59;6.30;;;2.83;;
29384;SDS011;16367;48.736;9.218;2022-10-17T05:12:02;8.60;;;3.42;;
29384;SDS011;16367;48.736;9.218;2022-10-17T05:14:10;7.10;;;3.30;;
29384;SDS011;16367;48.736;9.218;2022-10-17T05:16:13;8.88;;;3.45;;
29384;SDS011;16367;48.736;9.218;2022-10-17T05:18:15;7.22;;;3.45;;
29384;SDS011;16367;48.736;9.218;2022-10-17T05:20:19;7.97;;;3.90;;
29384;SDS011;16367;48.736;9.218;2022-10-17T05:22:22;8.10;;;3.63;;
29384;SDS011;16367;48.736;9.218;2022-10-17T05:24:24;8.57;;;4.20;;
29384;SDS011;16367;48.736;9.218;2022-10-17T05:26:27;12.52;;;5.60;;
29384;SDS011;16367;48.736;9.218;2022-10-17T05:28:30;10.88;;;4.13;;
29384;SDS011;16367;48.736;9.218;2022-10-17T05:30:33;7.28;;;3.13;;
29384;SDS011;16367;48.736;9.218;2022-10-17T05:32:37;6.93;;;3.70;;
29384;SDS011;16367;48.736;9.218;2022-10-17T05:34:40;6.57;;;3.10;;
29384;SDS011;16367;48.736;9.218;2022-10-17T05:36:44;6.88;;;2.80;;
29384;SDS011;16367;48.736;9.218;2022-10-17T05:38:47;5.55;;;2.75;;
29384;SDS011;16367;48.736;9.218;2022-10-17T05:40:51;8.52;;;3.10;;
29384;SDS011;16367;48.736;9.218;2022-10-17T05:42:57;6.18;;;2.78;;
29384;SDS011;16367;48.736;9.218;2022-10-17T05:45:00;9.90;;;3.10;;
29384;SDS011;16367;48.736;9.218;2022-10-17T05:47:03;9.70;;;3.00;;
29384;SDS011;16367;48.736;9.218;2022-10-17T05:49:05;7.47;;;2.90;;
29384;SDS011;16367;48.736;9.218;2022-10-17T05:51:28;6.50;;;3.00;;
29384;SDS011;16367;48.736;9.218;2022-10-17T05:53:33;5.88;;;2.60;;
29384;SDS011;16367;48.736;9.218;2022-10-17T05:55:37;7.28;;;3.08;;
29384;SDS011;16367;48.736;9.218;2022-10-17T05:57:39;7.13;;;2.90;;
29384;SDS011;16367;48.736;9.218;2022-10-17T05:59:42;9.38;;;3.20;;
29384;SDS011;16367;48.736;9.218;2022-10-17T06:01:44;11.10;;;3.17;;
29384;SDS011;16367;48.736;9.218;2022-10-17T06:03:47;8.85;;;3.38;;
29384;SDS011;16367;48.736;9.218;2022-10-17T06:05:50;8.10;;;3.25;;
29384;SDS011;16367;48.736;9.218;2022-10-17T06:07:53;7.32;;;2.78;;
29384;SDS011;16367;48.736;9.218;2022-10-17T06:10:02;9.68;;;3.03;;
29384;SDS011;16367;48.736;9.218;2022-10-17T06:12:06;6.07;;;3.03;;
29384;SDS011;16367;48.736;9.218;2022-10-17T06:14:09;8.00;;;3.13;;
29384;SDS011;16367;48.736;9.218;2022-10-17T06:16:11;7.25;;;2.80;;
29384;SDS011;16367;48.736;9.218;2022-10-17T06:18:14;11.52;;;3.80;;
29384;SDS011;16367;48.736;9.218;2022-10-17T06:20:17;6.88;;;3.20;;
29384;SDS011;16367;48.736;9.218;2022-10-17T06:22:19;7.93;;;3.42;;
29384;SDS011;16367;48.736;9.218;2022-10-17T06:24:22;8.07;;;3.58;;
29384;SDS011;16367;48.736;9.218;2022-10-17T06:26:26;7.38;;;3.08;;
29384;SDS011;16367;48.736;9.218;2022-10-17T06:28:29;7.95;;;3.35;;
29384;SDS011;16367;48.736;9.218;2022-10-17T06:30:31;6.03;;;3.00;;
29384;SDS011;16367;48.736;9.218;2022-10-17T06:32:34;8.55;;;3.08;;
29384;SDS011;16367;48.736;9.218;2022-10-17T06:34:37;7.18;;;3.10;;
29384;SDS011;16367;48.736;9.218;2022-10-17T06:36:39;7.50;;;3.60;;
29384;SDS011;16367;48.736;9.218;2022-10-17T06:38:42;8.82;;;3.50;;
29384;SDS011;16367;48.736;9.218;2022-10-17T06:40:45;8.18;;;3.53;;
29384;SDS011;16367;48.736;9.218;2022-10-17T06:42:49;6.65;;;3.50;;
29384;SDS011;16367;48.736;9.218;2022-10-17T06:44:51;9.50;;;3.13;;
29384;SDS011;16367;48.736;9.218;2022-10-17T06:46:54;7.35;;;3.28;;
29384;SDS011;16367;48.736;9.218;2022-10-17T06:48:57;7.88;;;3.47;;
29384;SDS011;16367;48.736;9.218;2022-10-17T06:50:59;9.30;;;4.00;;
29384;SDS011;16367;48.736;9.218;2022-10-17T06:53:02;10.75;;;4.65;;
29384;SDS011;16367;48.736;9.218;2022-10-17T06:55:05;9.75;;;5.05;;
29384;SDS011;16367;48.736;9.218;2022-10-17T06:57:08;7.00;;;3.95;;
29384;SDS011;16367;48.736;9.218;2022-10-17T06:59:13;8.32;;;3.47;;
29384;SDS011;16367;48.736;9.218;2022-10-17T07:01:16;8.77;;;3.72;;
29384;SDS011;16367;48.736;9.218;2022-10-17T07:03:19;6.55;;;3.50;;
29384;SDS011;16367;48.736;9.218;2022-10-17T07:05:22;7.35;;;3.80;;
29384;SDS011;16367;48.736;9.218;2022-10-17T07:07:25;5.65;;;2.58;;
29384;SDS011;16367;48.736;9.218;2022-10-17T07:09:28;7.72;;;3.03;;
29384;SDS011;16367;48.736;9.218;2022-10-17T07:11:31;6.30;;;2.78;;
29384;SDS011;16367;48.736;9.218;2022-10-17T07:13:35;9.60;;;3.60;;
29384;SDS011;16367;48.736;9.218;2022-10-17T07:15:41;7.20;;;3.95;;
29384;SDS011;16367;48.736;9.218;2022-10-17T07:17:46;9.48;;;3.60;;
29384;SDS011;16367;48.736;9.218;2022-10-17T07:19:49;7.55;;;3.03;;
29384;SDS011;16367;48.736;9.218;2022-10-17T07:21:52;7.28;;;2.88;;
29384;SDS011;16367;48.736;9.218;2022-10-17T07:23:55;8.68;;;3.20;;
29384;SDS011;16367;48.736;9.218;2022-10-17T07:25:58;6.78;;;3.33;;
29384;SDS011;16367;48.736;9.218;2022-10-17T07:28:01;10.38;;;3.17;;
29384;SDS011;16367;48.736;9.218;2022-10-17T07:30:04;9.68;;;3.63;;
29384;SDS011;16367;48.736;9.218;2022-10-17T07:32:09;7.80;;;2.75;;
29384;SDS011;16367;48.736;9.218;2022-10-17T07:34:12;7.15;;;2.60;;
29384;SDS011;16367;48.736;9.218;2022-10-17T07:36:15;7.20;;;2.70;;
29384;SDS011;16367;48.736;9.218;2022-10-17T07:38:18;6.72;;;2.70;;
29384;SDS011;16367;48.736;9.218;2022-10-17T07:40:21;7.63;;;2.70;;
29384;SDS011;16367;48.736;9.218;2022-10-17T07:42:23;5.32;;;2.75;;
29384;SDS011;16367;48.736;9.218;2022-10-17T07:44:26;9.27;;;3.15;;
29384;SDS011;16367;48.736;9.218;2022-10-17T07:46:28;6.38;;;2.42;;
29384;SDS011;16367;48.736;9.218;2022-10-17T07:48:32;7.35;;;2.83;;
29384;SDS011;16367;48.736;9.218;2022-10-17T07:50:35;8.32;;;2.63;;
29384;SDS011;16367;48.736;9.218;2022-10-17T07:52:38;7.35;;;2.75;;
29384;SDS011;16367;48.736;9.218;2022-10-17T07:54:43;5.80;;;2.60;;
29384;SDS011;16367;48.736;9.218;2022-10-17T07:56:45;9.32;;;2.83;;
29384;SDS011;16367;48.736;9.218;2022-10-17T07:58:51;6.70;;;2.47;;
29384;SDS011;16367;48.736;9.218;2022-10-17T08:00:54;7.05;;;2.17;;
29384;SDS011;16367;48.736;9.218;2022-10-17T08:02:57;6.38;;;2.55;;
29384;SDS011;16367;48.736;9.218;2022-10-17T08:05:01;5.47;;;2.30;;
29384;SDS011;16367;48.736;9.218;2022-10-17T08:07:03;7.13;;;2.30;;
29384;SDS011;16367;48.736;9.218;2022-10-17T08:11:24;11.27;;;2.67;;
29384;SDS011;16367;48.736;9.218;2022-10-17T08:13:27;8.38;;;2.22;;
29384;SDS011;16367;48.736;9.218;2022-10-17T08:15:30;7.00;;;2.38;;
29384;SDS011;16367;48.736;9.218;2022-10-17T08:17:33;8.27;;;2.38;;
29384;SDS011;16367;48.736;9.218;2022-10-17T08:19:37;7.35;;;2.10;;
29384;SDS011;16367;48.736;9.218;2022-10-17T08:21:42;6.43;;;2.38;;
29384;SDS011;16367;48.736;9.218;2022-10-17T08:25:49;6.35;;;2.10;;
29384;SDS011;16367;48.736;9.218;2022-10-17T08:27:52;7.10;;;2.15;;
29384;SDS011;16367;48.736;9.218;2022-10-17T08:29:54;5.78;;;1.80;;
29384;SDS011;16367;48.736;9.218;2022-10-17T08:31:57;7.97;;;2.50;;
29384;SDS011;16367;48.736;9.218;2022-10-17T08:34:02;5.22;;;2.28;;
29384;SDS011;16367;48.736;9.218;2022-10-17T08:36:05;7.30;;;2.30;;
29384;SDS011;16367;48.736;9.218;2022-10-17T08:38:10;7.88;;;2.30;;
29384;SDS011;16367;48.736;9.218;2022-10-17T08:40:15;8.05;;;2.38;;
29384;SDS011;16367;48.736;9.218;2022-10-17T08:42:27;8.52;;;1.98;;
29384;SDS011;16367;48.736;9.218;2022-10-17T08:44:45;6.93;;;2.50;;
29384;SDS011;16367;48.736;9.218;2022-10-17T08:46:54;10.73;;;2.67;;
29384;SDS011;16367;48.736;9.218;2022-10-17T08:49:01;5.63;;;2.33;;
29384;SDS011;16367;48.736;9.218;2022-10-17T08:51:12;11.02;;;2.42;;
29384;SDS011;16367;48.736;9.218;2022-10-17T08:53:20;8.90;;;2.60;;
29384;SDS011;16367;48.736;9.218;2022-10-17T08:55:27;4.93;;;2.00;;
29384;SDS011;16367;48.736;9.218;2022-10-17T08:57:33;7.20;;;2.42;;
29384;SDS011;16367;48.736;9.218;2022-10-17T08:59:36;10.48;;;2.80;;
29384;SDS011;16367;48.736;9.218;2022-10-17T09:01:40;9.48;;;2.30;;
29384;SDS011;16367;48.736;9.218;2022-10-17T09:03:50;9.20;;;2.42;;
29384;SDS011;16367;48.736;9.218;2022-10-17T09:06:12;6.65;;;2.42;;
29384;SDS011;16367;48.736;9.218;2022-10-17T09:08:27;6.93;;;2.10;;
29384;SDS011;16367;48.736;9.218;2022-10-17T09:10:40;14.20;;;2.63;;
29384;SDS011;16367;48.736;9.218;2022-10-17T09:12:53;6.50;;;2.25;;
29384;SDS011;16367;48.736;9.218;2022-10-17T09:15:21;8.27;;;2.28;;
29384;SDS011;16367;48.736;9.218;2022-10-17T09:17:44;7.10;;;2.15;;
29384;SDS011;16367;48.736;9.218;2022-10-17T09:19:55;7.00;;;2.20;;
29384;SDS011;16367;48.736;9.218;2022-10-17T09:22:04;4.10;;;1.80;;
29384;SDS011;16367;48.736;9.218;2022-10-17T09:24:13;8.57;;;2.13;;
29384;SDS011;16367;48.736;9.218;2022-10-17T09:26:19;6.47;;;2.35;;
29384;SDS011;16367;48.736;9.218;2022-10-17T09:28:23;7.13;;;1.90;;
29384;SDS011;16367;48.736;9.218;2022-10-17T09:30:34;7.50;;;2.42;;
29384;SDS011;16367;48.736;9.218;2022-10-17T09:32:46;5.38;;;2.35;;
29384;SDS011;16367;48.736;9.218;2022-10-17T09:34:50;6.47;;;2.10;;
29384;SDS011;16367;48.736;9.218;2022-10-17T09:36:53;6.03;;;2.10;;
29384;SDS011;16367;48.736;9.218;2022-10-17T09:38:57;6.40;;;2.30;;
29384;SDS011;16367;48.736;9.218;2022-10-17T09:41:04;6.28;;;2.00;;
29384;SDS011;16367;48.736;9.218;2022-10-17T09:43:34;8.05;;;2.13;;
29384;SDS011;16367;48.736;9.218;2022-10-17T09:45:38;9.07;;;2.40;;
29384;SDS011;16367;48.736;9.218;2022-10-17T09:47:49;8.25;;;2.45;;
29384;SDS011;16367;48.736;9.218;2022-10-17T09:50:02;5.55;;;1.83;;
29384;SDS011;16367;48.736;9.218;2022-10-17T09:52:05;5.78;;;2.30;;
29384;SDS011;16367;48.736;9.218;2022-10-17T09:54:16;8.77;;;2.17;;
29384;SDS011;16367;48.736;9.218;2022-10-17T09:56:24;5.60;;;2.00;;
29384;SDS011;16367;48.736;9.218;2022-10-17T09:58:38;4.32;;;1.95;;
29384;SDS011;16367;48.736;9.218;2022-10-17T10:00:43;5.15;;;1.60;;
29384;SDS011;16367;48.736;9.218;2022-10-17T10:02:47;4.88;;;1.88;;
29384;SDS011;16367;48.736;9.218;2022-10-17T10:04:50;5.82;;;2.17;;
29384;SDS011;16367;48.736;9.218;2022-10-17T10:07:09;4.50;;;1.83;;
29384;SDS011;16367;48.736;9.218;2022-10-17T10:11:23;7.80;;;2.22;;
29384;SDS011;16367;48.736;9.218;2022-10-17T10:13:46;8.63;;;2.30;;
29384;SDS011;16367;48.736;9.218;2022-10-17T10:15:50;5.25;;;2.17;;
29384;SDS011;16367;48.736;9.218;2022-10-17T10:17:52;4.63;;;1.60;;
29384;SDS011;16367;48.736;9.218;2022-10-17T10:19:55;7.70;;;1.90;;
29384;SDS011;16367;48.736;9.218;2022-10-17T10:21:58;6.57;;;1.85;;
29384;SDS011;16367;48.736;9.218;2022-10-17T10:24:03;5.07;;;1.98;;
29384;SDS011;16367;48.736;9.218;2022-10-17T10:28:32;5.60;;;1.98;;
29384;SDS011;16367;48.736;9.218;2022-10-17T10:30:36;6.78;;;1.98;;
29384;SDS011;16367;48.736;9.218;2022-10-17T10:32:40;4.47;;;2.17;;
29384;SDS011;16367;48.736;9.218;2022-10-17T10:34:49;5.43;;;2.08;;
29384;SDS011;16367;48.736;9.218;2022-10-17T10:36:55;5.88;;;2.10;;
29384;SDS011;16367;48.736;9.218;2022-10-17T10:39:02;7.82;;;1.90;;
29384;SDS011;16367;48.736;9.218;2022-10-17T10:41:06;6.22;;;1.83;;
29384;SDS011;16367;48.736;9.218;2022-10-17T10:43:19;8.30;;;1.98;;
29384;SDS011;16367;48.736;9.218;2022-10-17T10:45:25;5.85;;;1.73;;
29384;SDS011;16367;48.736;9.218;2022-10-17T10:47:49;5.22;;;1.98;;
29384;SDS011;16367;48.736;9.218;2022-10-17T10:50:05;6.70;;;1.90;;
29384;SDS011;16367;48.736;9.218;2022-10-17T10:52:19;4.93;;;1.90;;
29384;SDS011;16367;48.736;9.218;2022-10-17T10:54:29;5.50;;;1.67;;
29384;SDS011;16367;48.736;9.218;2022-10-17T10:56:36;7.60;;;2.20;;
29384;SDS011;16367;48.736;9.218;2022-10-17T10:58:44;4.07;;;1.80;;
29384;SDS011;16367;48.736;9.218;2022-10-17T11:00:52;7.45;;;1.90;;
29384;SDS011;16367;48.736;9.218;2022-10-17T11:02:59;6.22;;;2.00;;
29384;SDS011;16367;48.736;9.218;2022-10-17T11:05:14;4.85;;;1.98;;
29384;SDS011;16367;48.736;9.218;2022-10-17T11:07:22;4.97;;;2.05;;
29384;SDS011;16367;48.736;9.218;2022-10-17T11:09:39;7.32;;;1.85;;
29384;SDS011;16367;48.736;9.218;2022-10-17T11:13:57;5.45;;;1.48;;
29384;SDS011;16367;48.736;9.218;2022-10-17T11:16:14;4.72;;;1.70;;
29384;SDS011;16367;48.736;9.218;2022-10-17T11:18:23;7.72;;;1.80;;
29384;SDS011;16367;48.736;9.218;2022-10-17T11:22:36;5.32;;;1.70;;
29384;SDS011;16367;48.736;9.218;2022-10-17T11:24:45;7.22;;;1.67;;
29384;SDS011;16367;48.736;9.218;2022-10-17T11:26:57;7.22;;;1.75;;
29384;SDS011;16367;48.736;9.218;2022-10-17T11:29:03;5.75;;;1.98;;
29384;SDS011;16367;48.736;9.218;2022-10-17T11:31:09;5.30;;;1.40;;
29384;SDS011;16367;48.736;9.218;2022-10-17T11:35:22;4.95;;;1.30;;
29384;SDS011;16367;48.736;9.218;2022-10-17T11:37:29;5.07;;;1.80;;
29384;SDS011;16367;48.736;9.218;2022-10-17T11:39:37;6.45;;;1.50;;
29384;SDS011;16367;48.736;9.218;2022-10-17T11:41:47;5.47;;;1.27;;
29384;SDS011;16367;48.736;9.218;2022-10-17T11:43:56;5.43;;;1.40;;
29384;SDS011;16367;48.736;9.218;2022-10-17T11:46:05;4.78;;;1.20;;
29384;SDS011;16367;48.736;9.218;2022-10-17T11:48:16;4.35;;;1.17;;
29384;SDS011;16367;48.736;9.218;2022-10-17T11:50:23;5.72;;;1.50;;
29384;SDS011;16367;48.736;9.218;2022-10-17T11:52:50;3.92;;;1.30;;
29384;SDS011;16367;48.736;9.218;2022-10-17T11:54:58;3.60;;;1.20;;
29384;SDS011;16367;48.736;9.218;2022-10-17T11:57:18;5.10;;;1.30;;
29384;SDS011;16367;48.736;9.218;2022-10-17T11:59:43;5.60;;;1.17;;
29384;SDS011;16367;48.736;9.218;2022-10-17T12:01:57;8.15;;;1.65;;
29384;SDS011;16367;48.736;9.218;2022-10-17T12:04:16;5.28;;;1.40;;
29384;SDS011;16367;48.736;9.218;2022-10-17T12:06:31;5.07;;;1.27;;
29384;SDS011;16367;48.736;9.218;2022-10-17T12:08:45;5.95;;;1.30;;
29384;SDS011;16367;48.736;9.218;2022-10-17T12:10:55;5.53;;;1.70;;
29384;SDS011;16367;48.736;9.218;2022-10-17T12:15:38;3.92;;;1.30;;
29384;SDS011;16367;48.736;9.218;2022-10-17T12:17:48;4.45;;;1.30;;
29384;SDS011;16367;48.736;9.218;2022-10-17T12:22:27;4.97;;;1.30;;
29384;SDS011;16367;48.736;9.218;2022-10-17T12:24:34;7.82;;;1.40;;
29384;SDS011;16367;48.736;9.218;2022-10-17T12:26:40;5.15;;;1.50;;
29384;SDS011;16367;48.736;9.218;2022-10-17T12:28:43;3.75;;;1.23;;
29384;SDS011;16367;48.736;9.218;2022-10-17T12:30:48;8.43;;;1.70;;
29384;SDS011;16367;48.736;9.218;2022-10-17T12:33:02;4.38;;;1.48;;
29384;SDS011;16367;48.736;9.218;2022-10-17T12:35:13;4.63;;;1.30;;
29384;SDS011;16367;48.736;9.218;2022-10-17T12:40:02;4.45;;;1.52;;
29384;SDS011;16367;48.736;9.218;2022-10-17T12:42:20;6.15;;;1.48;;
29384;SDS011;16367;48.736;9.218;2022-10-17T12:44:35;5.03;;;1.67;;
29384;SDS011;16367;48.736;9.218;2022-10-17T12:48:59;4.88;;;1.50;;
29384;SDS011;16367;48.736;9.218;2022-10-17T12:51:05;5.68;;;1.48;;
29384;SDS011;16367;48.736;9.218;2022-10-17T12:53:33;4.45;;;1.30;;
29384;SDS011;16367;48.736;9.218;2022-10-17T12:55:41;5.82;;;1.70;;
29384;SDS011;16367;48.736;9.218;2022-10-17T12:57:49;5.10;;;1.65;;
29384;SDS011;16367;48.736;9.218;2022-10-17T12:59:56;3.97;;;1.40;;
29384;SDS011;16367;48.736;9.218;2022-10-17T13:02:00;6.55;;;1.80;;
29384;SDS011;16367;48.736;9.218;2022-10-17T13:04:06;6.13;;;1.60;;
29384;SDS011;16367;48.736;9.218;2022-10-17T13:06:13;5.35;;;1.60;;
29384;SDS011;16367;48.736;9.218;2022-10-17T13:08:21;4.80;;;1.50;;
29384;SDS011;16367;48.736;9.218;2022-10-17T13:10:30;6.13;;;1.58;;
29384;SDS011;16367;48.736;9.218;2022-10-17T13:12:36;4.72;;;1.50;;
29384;SDS011;16367;48.736;9.218;2022-10-17T13:14:41;8.07;;;1.65;;